Time;durP1;ratioP1;P1;durP2;ratioP2;P2;SDS_P1;SDS_P2;PMS_P1;PMS_P2;Temp;Humidity;BMP_temperature;BMP_pressure;BME280_temperature;BME280_humidity;BME280_pressure;Samples;Min_cycle;Max_cycle;Signal;HPM_P1;HPM_P2
2023/03/08 00:02:17;;;;;;;;;;;;;;;1.30;84.51;97157.25;5073300;28;20291;-84
2023/03/08 00:04:42;;;;;;;;;;;;;;;1.33;84.49;97164.66;5073848;28;20361;-83
2023/03/08 00:07:08;;;;;;;;;;;;;;;1.26;84.30;97177.94;5068547;28;19931;-83
2023/03/08 00:09:33;;;;;;;;;;;;;;;1.26;84.18;97177.13;5073825;28;19920;-83
2023/03/08 00:11:58;;;;;;;;;;;;;;;1.27;84.44;97187.41;5072002;28;20384;-84
2023/03/08 00:14:23;;;;;;;;;;;;;;;1.29;84.17;97179.31;5072681;28;19934;-85
2023/03/08 00:16:49;;;;;;;;;;;;;;;1.31;84.23;97183.28;5068996;28;19967;-84
2023/03/08 00:19:14;;;;;;;;;;;;;;;1.33;83.97;97186.47;5067882;28;19916;-84
2023/03/08 00:21:39;;;;;;;;;;;;;;;1.33;83.87;97189.09;5051555;28;20422;-83
2023/03/08 00:24:04;;;;;;;;;;;;;;;1.22;84.59;97189.91;5072253;28;19920;-84
2023/03/08 00:26:30;;;;;;;;;;;;;;;1.35;84.03;97194.94;5069373;28;19924;-83
2023/03/08 00:28:55;;;;;;;;;;;;;;;1.41;83.85;97187.97;5070307;28;19968;-83
2023/03/08 00:31:20;;;;;;;;;;;;;;;1.45;83.26;97187.28;5069216;28;19913;-84
2023/03/08 00:33:46;;;;;;;;;;;;;;;1.41;83.20;97201.09;5048152;28;19928;-83
2023/03/08 00:36:15;;;;;;;;;;;;;;;1.22;84.25;97204.91;5086287;28;19921;-83
2023/03/08 00:38:41;;;;;;;;;;;;;;;0.98;84.72;97211.97;5068441;28;20320;-83
2023/03/08 00:41:06;;;;;;;;;;;;;;;1.18;84.49;97209.00;5066353;28;19920;-83
2023/03/08 00:43:32;;;;;;;;;;;;;;;1.15;84.61;97207.63;5070073;28;19924;-83
2023/03/08 00:45:57;;;;;;;;;;;;;;;1.27;83.85;97204.97;5064358;28;20434;-83
2023/03/08 00:48:22;;;;;;;;;;;;;;;1.43;83.72;97202.47;5062903;28;19924;-83
2023/03/08 00:50:48;;;;;;;;;;;;;;;1.35;83.75;97199.41;5053274;28;20296;-84
2023/03/08 00:53:13;;;;;;;;;;;;;;;1.30;83.62;97197.47;5072567;28;20375;-83
2023/03/08 00:55:38;;;;;;;;;;;;;;;1.40;83.42;97197.66;5069697;28;20360;-84
2023/03/08 00:58:04;;;;;;;;;;;;;;;1.23;84.07;97204.66;5056559;28;19989;-83
2023/03/08 01:00:30;;;;;;;;;;;;;;;1.38;83.87;97204.97;5067866;28;19917;-84
2023/03/08 01:02:55;;;;;;;;;;;;;;;1.40;83.57;97208.19;5054318;28;19967;-83
2023/03/08 01:05:21;;;;;;;;;;;;;;;1.43;83.62;97205.09;5071378;28;19912;-83
2023/03/08 01:07:46;;;;;;;;;;;;;;;1.45;83.56;97208.28;5072617;28;19925;-82
2023/03/08 01:10:11;;;;;;;;;;;;;;;1.43;83.19;97213.00;5069013;28;19935;-84
2023/03/08 01:12:37;;;;;;;;;;;;;;;1.46;83.30;97212.50;5052829;28;20368;-83
2023/03/08 01:15:03;;;;;;;;;;;;;;;1.55;83.04;97197.22;5075580;28;19916;-83
2023/03/08 01:17:29;;;;;;;;;;;;;;;1.52;82.94;97197.66;5085547;28;19920;-83
2023/03/08 01:19:54;;;;;;;;;;;;;;;1.47;83.10;97198.34;5069743;28;20364;-83
2023/03/08 01:22:19;;;;;;;;;;;;;;;1.50;83.23;97195.28;5070051;28;19967;-83
2023/03/08 01:24:46;;;;;;;;;;;;;;;1.46;83.35;97198.59;5055113;28;19920;-83
2023/03/08 01:27:11;;;;;;;;;;;;;;;1.47;83.29;97190.47;5070305;28;19920;-83
2023/03/08 01:29:37;;;;;;;;;;;;;;;1.46;83.21;97188.84;5050847;28;19950;-83
2023/03/08 01:32:02;;;;;;;;;;;;;;;1.43;83.13;97183.28;5069872;28;19938;-84
2023/03/08 01:34:27;;;;;;;;;;;;;;;1.46;83.21;97180.97;5072896;28;19926;-84
2023/03/08 01:36:52;;;;;;;;;;;;;;;1.53;83.90;97184.28;5061163;28;19928;-84
2023/03/08 01:39:18;;;;;;;;;;;;;;;1.53;82.76;97179.00;5053634;28;19921;-83
2023/03/08 01:41:43;;;;;;;;;;;;;;;1.57;83.08;97191.72;5072199;28;19924;-84
2023/03/08 01:44:15;;;;;;;;;;;;;;;1.48;83.20;97183.38;5069165;28;20010;-83
2023/03/08 01:46:41;;;;;;;;;;;;;;;1.49;83.25;97179.72;5069803;28;19960;-83
2023/03/08 01:49:09;;;;;;;;;;;;;;;1.41;83.63;97183.50;5072726;28;19974;-84
2023/03/08 01:51:37;;;;;;;;;;;;;;;1.39;83.88;97185.56;5068595;28;19916;-84
2023/03/08 01:54:09;;;;;;;;;;;;;;;1.46;83.48;97180.97;5072979;28;19927;-83
2023/03/08 01:56:34;;;;;;;;;;;;;;;1.51;83.68;97186.34;5084191;28;19916;-84
2023/03/08 01:59:00;;;;;;;;;;;;;;;1.40;83.87;97179.28;5070601;28;20009;-84
2023/03/08 02:01:26;;;;;;;;;;;;;;;1.42;83.57;97173.81;5066913;28;20748;-84
2023/03/08 02:03:51;;;;;;;;;;;;;;;1.44;83.55;97172.50;5081622;28;19956;-83
2023/03/08 02:06:17;;;;;;;;;;;;;;;1.53;83.63;97181.66;5072669;28;19924;-83
2023/03/08 02:08:43;;;;;;;;;;;;;;;1.46;83.48;97173.06;5071845;28;19931;-83
2023/03/08 02:11:08;;;;;;;;;;;;;;;1.47;83.58;97169.44;5071032;28;19916;-83
2023/03/08 02:13:34;;;;;;;;;;;;;;;1.49;83.20;97170.00;5074287;28;19924;-82
2023/03/08 02:16:01;;;;;;;;;;;;;;;1.42;83.46;97176.44;5071783;28;19920;-83
2023/03/08 02:18:26;;;;;;;;;;;;;;;1.31;84.45;97172.00;5069902;28;19924;-84
2023/03/08 02:20:51;;;;;;;;;;;;;;;1.03;84.53;97172.69;5067143;28;19924;-83
2023/03/08 02:23:19;;;;;;;;;;;;;;;1.07;84.14;97163.31;5085224;28;19935;-84
2023/03/08 02:25:55;;;;;;;;;;;;;;;1.18;85.03;97165.13;5069367;28;20288;-84
2023/03/08 02:28:22;;;;;;;;;;;;;;;1.18;84.58;97161.72;5066654;28;19951;-83
2023/03/08 02:30:48;;;;;;;;;;;;;;;1.37;84.13;97157.91;5069516;28;20307;-83
2023/03/08 02:33:13;;;;;;;;;;;;;;;1.02;84.32;97157.97;5065471;28;19943;-83
2023/03/08 02:35:41;;;;;;;;;;;;;;;1.30;84.17;97160.66;5068644;28;19921;-83
2023/03/08 02:38:06;;;;;;;;;;;;;;;1.34;84.06;97161.81;5069082;28;20629;-83
2023/03/08 02:40:32;;;;;;;;;;;;;;;1.26;83.95;97146.41;5068639;28;19930;-83
2023/03/08 02:42:57;;;;;;;;;;;;;;;1.28;83.67;97157.47;5071071;28;19924;-83
2023/03/08 02:45:22;;;;;;;;;;;;;;;1.32;83.69;97149.91;5069490;28;19963;-83
2023/03/08 02:47:47;;;;;;;;;;;;;;;1.16;84.15;97151.41;5068606;28;19928;-82
2023/03/08 02:50:13;;;;;;;;;;;;;;;1.28;83.77;97157.47;5066958;28;19940;-82
2023/03/08 02:52:38;;;;;;;;;;;;;;;1.34;83.66;97147.84;5069045;28;20053;-82
2023/03/08 02:55:03;;;;;;;;;;;;;;;1.23;83.90;97149.47;5067214;28;19975;-82
2023/03/08 02:57:29;;;;;;;;;;;;;;;1.29;83.29;97153.03;5070037;28;19966;-83
2023/03/08 02:59:54;;;;;;;;;;;;;;;0.95;83.46;97154.63;5071504;28;19932;-82
2023/03/08 03:02:19;;;;;;;;;;;;;;;1.04;83.40;97153.28;5064939;28;19924;-82
2023/03/08 03:04:44;;;;;;;;;;;;;;;1.26;83.61;97153.47;5050845;28;19924;-83
2023/03/08 03:07:10;;;;;;;;;;;;;;;1.31;83.29;97148.34;5068239;28;19927;-84
2023/03/08 03:09:35;;;;;;;;;;;;;;;1.25;83.13;97146.59;5074445;28;19996;-83
2023/03/08 03:12:00;;;;;;;;;;;;;;;1.31;83.08;97140.44;5067583;28;19928;-83
2023/03/08 03:14:26;;;;;;;;;;;;;;;1.33;82.90;97149.69;5071825;28;19931;-83
2023/03/08 03:16:52;;;;;;;;;;;;;;;1.34;82.52;97146.03;5071723;28;19921;-82
2023/03/08 03:19:17;;;;;;;;;;;;;;;1.42;81.94;97140.41;5069771;28;20000;-82
2023/03/08 03:21:42;;;;;;;;;;;;;;;1.40;82.18;97131.97;5073083;28;20011;-83
2023/03/08 03:24:07;;;;;;;;;;;;;;;1.35;81.93;97137.13;5069442;28;19959;-82
2023/03/08 03:26:33;;;;;;;;;;;;;;;1.38;81.93;97135.84;5069942;28;19927;-82
2023/03/08 03:28:58;;;;;;;;;;;;;;;1.24;82.13;97135.31;5084754;28;20432;-83
2023/03/08 03:31:24;;;;;;;;;;;;;;;1.29;82.19;97129.38;5069195;28;19920;-83
2023/03/08 03:33:50;;;;;;;;;;;;;;;1.19;82.37;97126.53;5071470;28;19920;-82
2023/03/08 03:36:17;;;;;;;;;;;;;;;1.21;82.08;97120.00;5071822;28;19970;-82
2023/03/08 03:38:43;;;;;;;;;;;;;;;1.22;82.04;97132.09;5069914;28;19959;-82
2023/03/08 03:41:10;;;;;;;;;;;;;;;1.12;82.09;97121.38;5068274;28;19967;-82
2023/03/08 03:43:35;;;;;;;;;;;;;;;1.08;82.11;97133.38;5070028;28;19943;-82
2023/03/08 03:46:02;;;;;;;;;;;;;;;1.09;81.99;97137.59;5073249;28;19921;-83
2023/03/08 03:48:27;;;;;;;;;;;;;;;1.05;81.86;97136.47;5073835;28;19928;-83
2023/03/08 03:50:56;;;;;;;;;;;;;;;0.99;82.15;97142.66;5070782;28;19920;-83
2023/03/08 03:53:22;;;;;;;;;;;;;;;1.00;81.89;97143.44;5074831;28;20472;-83
2023/03/08 03:55:48;;;;;;;;;;;;;;;0.98;82.29;97142.88;5068809;28;19943;-83
2023/03/08 03:58:13;;;;;;;;;;;;;;;0.98;82.45;97141.06;5073867;28;19928;-81
2023/03/08 04:00:38;;;;;;;;;;;;;;;0.97;81.95;97149.97;5088060;28;20394;-82
2023/03/08 04:03:03;;;;;;;;;;;;;;;1.07;82.01;97152.03;5073447;28;19940;-82
2023/03/08 04:05:29;;;;;;;;;;;;;;;1.03;82.16;97156.09;5053630;28;19921;-82
2023/03/08 04:07:54;;;;;;;;;;;;;;;1.14;82.24;97163.19;5087753;28;19974;-82
2023/03/08 04:10:19;;;;;;;;;;;;;;;1.04;82.20;97160.34;5074093;28;19978;-82
2023/03/08 04:12:47;;;;;;;;;;;;;;;1.02;82.27;97167.66;5075509;28;19920;-82
2023/03/08 04:15:12;;;;;;;;;;;;;;;1.08;82.32;97157.03;5075893;28;20015;-83
2023/03/08 04:17:37;;;;;;;;;;;;;;;1.10;82.17;97159.44;5070281;28;20419;-82
2023/03/08 04:20:04;;;;;;;;;;;;;;;1.08;82.20;97149.16;5073113;28;19932;-83
2023/03/08 04:22:29;;;;;;;;;;;;;;;1.17;81.82;97154.84;5083959;28;19959;-83
2023/03/08 04:24:55;;;;;;;;;;;;;;;1.19;81.99;97132.59;5068473;28;19951;-81
2023/03/08 04:27:20;;;;;;;;;;;;;;;1.04;82.11;97137.50;5067169;28;20005;-82
2023/03/08 04:29:45;;;;;;;;;;;;;;;1.13;82.15;97135.34;5070441;28;20307;-83
2023/03/08 04:32:10;;;;;;;;;;;;;;;1.12;81.87;97131.91;5049571;28;19924;-82
2023/03/08 04:34:36;;;;;;;;;;;;;;;1.16;82.24;97151.41;5069605;28;19927;-83
2023/03/08 04:37:01;;;;;;;;;;;;;;;1.15;82.07;97147.22;5072324;28;19923;-83
2023/03/08 04:39:26;;;;;;;;;;;;;;;1.06;82.24;97140.72;5067911;28;20399;-83
2023/03/08 04:41:51;;;;;;;;;;;;;;;1.08;81.91;97135.22;5067582;28;20507;-83
2023/03/08 04:44:16;;;;;;;;;;;;;;;1.10;82.27;97136.59;5068407;28;19920;-82
2023/03/08 04:46:42;;;;;;;;;;;;;;;1.02;82.38;97115.94;5068701;28;19928;-82
2023/03/08 04:49:07;;;;;;;;;;;;;;;1.16;82.17;97117.28;5071537;28;19930;-83
2023/03/08 04:51:32;;;;;;;;;;;;;;;1.12;82.12;97110.06;5068364;28;19920;-82
2023/03/08 04:53:57;;;;;;;;;;;;;;;1.12;82.26;97116.13;5066109;28;19934;-82
2023/03/08 04:56:23;;;;;;;;;;;;;;;1.13;82.37;97116.94;5054805;28;19972;-82
2023/03/08 04:58:48;;;;;;;;;;;;;;;1.02;82.59;97126.44;5054402;28;20027;-81
2023/03/08 05:01:13;;;;;;;;;;;;;;;1.10;82.42;97123.44;5052848;28;19928;-83
2023/03/08 05:03:38;;;;;;;;;;;;;;;1.12;82.59;97125.84;5070703;28;20137;-82
2023/03/08 05:06:04;;;;;;;;;;;;;;;1.09;82.39;97121.84;5067564;28;20281;-82
2023/03/08 05:08:29;;;;;;;;;;;;;;;1.12;82.42;97110.06;5065298;28;19925;-83
2023/03/08 05:10:58;;;;;;;;;;;;;;;1.11;82.51;97114.56;5071115;28;20002;-84
2023/03/08 05:13:24;;;;;;;;;;;;;;;1.14;82.46;97106.19;5062645;28;19916;-83
2023/03/08 05:15:49;;;;;;;;;;;;;;;1.16;82.49;97104.13;5070636;28;19935;-83
2023/03/08 05:18:15;;;;;;;;;;;;;;;1.08;82.36;97103.69;5071222;28;20015;-83
2023/03/08 05:20:40;;;;;;;;;;;;;;;1.14;82.10;97100.94;5065063;28;19930;-83
2023/03/08 05:23:06;;;;;;;;;;;;;;;1.21;82.27;97096.38;5069983;28;19935;-83
2023/03/08 05:25:32;;;;;;;;;;;;;;;1.15;82.34;97084.16;5064758;28;20404;-83
2023/03/08 05:27:57;;;;;;;;;;;;;;;1.17;82.53;97087.34;5067554;28;19925;-84
2023/03/08 05:30:22;;;;;;;;;;;;;;;1.23;81.96;97088.25;5050288;28;19921;-82
2023/03/08 05:32:47;;;;;;;;;;;;;;;1.18;82.25;97078.44;5065688;28;19964;-82
2023/03/08 05:35:13;;;;;;;;;;;;;;;1.09;82.28;97079.81;5064782;28;19969;-83
2023/03/08 05:37:38;;;;;;;;;;;;;;;1.11;82.85;97079.59;5067749;28;20294;-83
2023/03/08 05:40:05;;;;;;;;;;;;;;;1.14;82.40;97081.75;5073813;28;19932;-84
2023/03/08 05:42:30;;;;;;;;;;;;;;;1.11;82.67;97085.66;5068348;28;20324;-83
2023/03/08 05:44:56;;;;;;;;;;;;;;;1.18;82.17;97082.91;5065387;28;19938;-84
2023/03/08 05:47:21;;;;;;;;;;;;;;;1.13;82.24;97078.34;5067857;28;20019;-83
2023/03/08 05:49:46;;;;;;;;;;;;;;;1.13;82.66;97070.47;5064784;28;20022;-83
2023/03/08 05:52:12;;;;;;;;;;;;;;;1.15;82.44;97076.28;5050614;28;19932;-82
2023/03/08 05:54:38;;;;;;;;;;;;;;;1.21;82.17;97077.16;5066761;28;20049;-83
2023/03/08 05:57:03;;;;;;;;;;;;;;;1.16;82.83;97079.69;5060636;28;19986;-83
2023/03/08 05:59:29;;;;;;;;;;;;;;;1.02;82.91;97078.34;5072892;28;19920;-83
2023/03/08 06:01:54;;;;;;;;;;;;;;;0.85;83.99;97056.47;5076774;28;19928;-82
2023/03/08 06:04:19;;;;;;;;;;;;;;;1.11;83.47;97072.53;5064787;28;19921;-82
2023/03/08 06:06:44;;;;;;;;;;;;;;;1.26;82.93;97067.56;5069659;28;19923;-83
2023/03/08 06:09:09;;;;;;;;;;;;;;;1.28;82.21;97067.31;5055538;28;19966;-82
2023/03/08 06:11:35;;;;;;;;;;;;;;;1.33;82.43;97064.81;5071258;28;19974;-84
2023/03/08 06:14:00;;;;;;;;;;;;;;;1.21;82.77;97070.09;5049370;28;19936;-84
2023/03/08 06:16:25;;;;;;;;;;;;;;;1.29;82.87;97068.94;5067622;28;20428;-83
2023/03/08 06:18:50;;;;;;;;;;;;;;;1.33;82.41;97062.19;5087317;28;20425;-82
2023/03/08 06:21:17;;;;;;;;;;;;;;;1.25;82.60;97067.78;5071251;28;20394;-82
2023/03/08 06:23:43;;;;;;;;;;;;;;;1.25;82.71;97070.41;5067766;28;19931;-82
2023/03/08 06:26:09;;;;;;;;;;;;;;;1.24;83.16;97067.00;5071167;28;20382;-84
2023/03/08 06:28:35;;;;;;;;;;;;;;;1.21;83.20;97064.03;5066565;28;19987;-82
2023/03/08 06:31:00;;;;;;;;;;;;;;;1.24;82.90;97060.94;5067242;28;19917;-84
2023/03/08 06:33:27;;;;;;;;;;;;;;;1.21;83.00;97064.84;5071497;28;20328;-84
2023/03/08 06:36:09;;;;;;;;;;;;;;;1.24;82.94;97059.13;5069036;28;19923;-83
2023/03/08 06:38:36;;;;;;;;;;;;;;;1.20;83.09;97059.81;5088969;28;19961;-83
2023/03/08 06:41:02;;;;;;;;;;;;;;;1.25;83.24;97060.72;5070543;28;20376;-84
2023/03/08 06:43:27;;;;;;;;;;;;;;;1.23;83.11;97059.34;5072466;28;21171;-84
2023/03/08 06:45:52;;;;;;;;;;;;;;;1.23;83.50;97054.88;5069368;28;20383;-84
2023/03/08 06:48:18;;;;;;;;;;;;;;;1.14;83.79;97058.91;5055590;28;20371;-83
2023/03/08 06:50:43;;;;;;;;;;;;;;;1.27;83.55;97050.75;5068750;28;19920;-83
2023/03/08 06:53:08;;;;;;;;;;;;;;;1.25;83.39;97052.00;5054096;28;20209;-82
2023/03/08 06:55:34;;;;;;;;;;;;;;;1.24;83.74;97045.19;5069539;28;20352;-83
2023/03/08 06:58:00;;;;;;;;;;;;;;;1.34;83.04;97040.13;5068372;28;20323;-83
2023/03/08 07:00:25;;;;;;;;;;;;;;;1.26;83.65;97037.88;5071093;28;19921;-84
2023/03/08 07:02:50;;;;;;;;;;;;;;;1.30;83.33;97039.00;5071706;28;20564;-84
2023/03/08 07:05:16;;;;;;;;;;;;;;;1.26;83.57;97037.88;5055099;28;19958;-84
2023/03/08 07:07:44;;;;;;;;;;;;;;;1.26;83.84;97028.16;5073171;28;20429;-83
2023/03/08 07:10:10;;;;;;;;;;;;;;;1.18;84.07;97028.50;5051888;28;19931;-83
2023/03/08 07:12:39;;;;;;;;;;;;;;;1.22;84.42;97037.50;5071764;28;19916;-83
2023/03/08 07:15:05;;;;;;;;;;;;;;;0.92;85.27;97034.28;5072742;28;19981;-84
2023/03/08 07:17:31;;;;;;;;;;;;;;;0.87;85.96;97031.56;5071210;28;19917;-83
2023/03/08 07:19:57;;;;;;;;;;;;;;;1.03;85.46;97030.03;5070145;28;19920;-85
2023/03/08 07:22:22;;;;;;;;;;;;;;;1.10;85.12;97025.44;5055863;28;19935;-84
2023/03/08 07:24:47;;;;;;;;;;;;;;;1.02;85.21;97021.38;5054644;28;20376;-84
2023/03/08 07:27:12;;;;;;;;;;;;;;;1.17;84.76;97028.75;5071933;28;20376;-84
2023/03/08 07:29:38;;;;;;;;;;;;;;;0.97;84.99;97023.88;5070285;28;19931;-84
2023/03/08 07:32:03;;;;;;;;;;;;;;;1.02;85.78;97028.44;5071512;28;19924;-83
2023/03/08 07:34:28;;;;;;;;;;;;;;;0.99;85.75;97021.81;5072286;28;19924;-82
2023/03/08 07:36:53;;;;;;;;;;;;;;;1.05;85.91;97020.91;5055078;28;20403;-84
2023/03/08 07:39:19;;;;;;;;;;;;;;;0.94;85.75;97016.47;5070708;28;19920;-84
2023/03/08 07:41:44;;;;;;;;;;;;;;;1.11;85.70;97014.72;5054319;28;20291;-83
2023/03/08 07:44:09;;;;;;;;;;;;;;;1.07;85.99;97008.31;5069646;28;20107;-84
2023/03/08 07:46:34;;;;;;;;;;;;;;;1.24;85.03;97003.94;5055708;28;19920;-83
2023/03/08 07:49:00;;;;;;;;;;;;;;;1.14;85.37;96995.84;5074590;28;19933;-84
2023/03/08 07:51:25;;;;;;;;;;;;;;;1.14;85.10;96997.69;5057952;28;19946;-85
2023/03/08 07:53:51;;;;;;;;;;;;;;;1.19;85.24;96995.97;5055604;28;20032;-85
2023/03/08 07:56:16;;;;;;;;;;;;;;;1.13;86.06;96975.88;5075385;28;19921;-84
2023/03/08 07:58:41;;;;;;;;;;;;;;;1.23;85.33;96981.31;5073920;28;19920;-84
2023/03/08 08:01:11;;;;;;;;;;;;;;;1.15;85.43;96979.06;5051559;28;20354;-85
2023/03/08 08:03:37;;;;;;;;;;;;;;;1.08;86.38;96988.91;5072988;28;19927;-85
2023/03/08 08:06:03;;;;;;;;;;;;;;;0.99;86.25;96985.06;5072740;28;20007;-85
2023/03/08 08:08:28;;;;;;;;;;;;;;;0.83;87.16;96985.00;5070918;28;19928;-84
2023/03/08 08:10:53;;;;;;;;;;;;;;;0.70;87.54;96976.34;5051793;28;19969;-85
2023/03/08 08:13:19;;;;;;;;;;;;;;;0.84;87.96;96974.25;5054154;28;19931;-83
2023/03/08 08:15:44;;;;;;;;;;;;;;;0.90;87.21;96978.56;5054699;28;19928;-84
2023/03/08 08:18:09;;;;;;;;;;;;;;;0.83;87.41;96972.66;5063426;28;20426;-83
2023/03/08 08:20:34;;;;;;;;;;;;;;;0.69;87.85;96972.13;5071379;28;20657;-83
2023/03/08 08:23:00;;;;;;;;;;;;;;;0.74;87.97;96977.47;5049744;28;20296;-83
2023/03/08 08:25:25;;;;;;;;;;;;;;;0.34;88.39;96981.06;5074139;28;19917;-84
2023/03/08 08:27:50;;;;;;;;;;;;;;;0.47;89.35;96972.97;5058400;28;19928;-83
2023/03/08 08:30:16;;;;;;;;;;;;;;;0.50;88.98;96975.13;5086752;28;19940;-84
2023/03/08 08:32:41;;;;;;;;;;;;;;;0.81;87.71;96972.09;5073556;28;19920;-84
2023/03/08 08:35:06;;;;;;;;;;;;;;;0.86;87.88;96963.50;5070450;28;19920;-83
2023/03/08 08:37:32;;;;;;;;;;;;;;;1.11;86.43;96966.66;5069789;28;19935;-83
2023/03/08 08:39:57;;;;;;;;;;;;;;;0.87;87.31;96965.94;5054311;28;19947;-84
2023/03/08 08:42:22;;;;;;;;;;;;;;;0.69;88.35;96956.38;5074163;28;19946;-84
2023/03/08 08:44:48;;;;;;;;;;;;;;;0.97;87.18;96947.72;5072097;28;20330;-83
2023/03/08 08:47:14;;;;;;;;;;;;;;;0.49;88.03;96957.78;5055078;28;20311;-83
2023/03/08 08:49:40;;;;;;;;;;;;;;;0.72;88.53;96942.78;5070653;28;19928;-84
2023/03/08 08:52:05;;;;;;;;;;;;;;;0.74;87.86;96947.81;5075110;28;19942;-84
2023/03/08 08:54:32;;;;;;;;;;;;;;;0.84;87.67;96937.50;5053364;28;19925;-84
2023/03/08 08:56:57;;;;;;;;;;;;;;;0.87;87.59;96942.28;5070128;28;19938;-83
2023/03/08 08:59:23;;;;;;;;;;;;;;;0.86;87.15;96929.38;5072166;28;19956;-83
2023/03/08 09:01:48;;;;;;;;;;;;;;;1.21;86.06;96924.78;5090680;28;19929;-84
2023/03/08 09:04:15;;;;;;;;;;;;;;;1.31;85.60;96923.13;5073715;28;19920;-83
2023/03/08 09:06:40;;;;;;;;;;;;;;;1.31;85.35;96920.50;5073549;28;19917;-84
2023/03/08 09:09:06;;;;;;;;;;;;;;;1.19;85.46;96913.72;5069460;28;19931;-84
2023/03/08 09:11:31;;;;;;;;;;;;;;;1.21;85.80;96914.28;5072896;28;19929;-84
2023/03/08 09:13:56;;;;;;;;;;;;;;;1.33;85.55;96902.66;5075015;28;19920;-84
2023/03/08 09:16:23;;;;;;;;;;;;;;;1.38;84.90;96900.13;5072082;28;19917;-83
2023/03/08 09:18:49;;;;;;;;;;;;;;;0.54;86.84;96890.47;5063911;28;20418;-82
2023/03/08 09:21:14;;;;;;;;;;;;;;;0.60;87.56;96891.34;5085129;28;19939;-82
2023/03/08 09:23:40;;;;;;;;;;;;;;;1.16;86.21;96888.72;5066831;28;19970;-84
2023/03/08 09:26:05;;;;;;;;;;;;;;;1.33;85.07;96891.38;5073575;28;19929;-84
2023/03/08 09:28:31;;;;;;;;;;;;;;;1.35;85.15;96884.03;5068910;28;19929;-85
2023/03/08 09:30:56;;;;;;;;;;;;;;;0.91;85.25;96883.03;5074491;28;20295;-84
2023/03/08 09:33:22;;;;;;;;;;;;;;;0.64;86.62;96880.16;5065344;28;19923;-83
2023/03/08 09:35:54;;;;;;;;;;;;;;;1.20;85.96;96879.31;5070615;28;19921;-86
2023/03/08 09:38:19;;;;;;;;;;;;;;;1.23;85.60;96868.34;5072469;28;19964;-84
2023/03/08 09:40:51;;;;;;;;;;;;;;;1.31;85.10;96856.66;5068291;28;19963;-84
2023/03/08 09:43:24;;;;;;;;;;;;;;;1.35;84.99;96861.19;5064524;28;20275;-85
2023/03/08 09:45:51;;;;;;;;;;;;;;;0.88;86.14;96853.78;5070034;28;19970;-84
2023/03/08 09:48:20;;;;;;;;;;;;;;;0.61;86.85;96853.59;5073173;28;19920;-85
2023/03/08 09:51:11;;;;;;;;;;;;;;;0.32;88.87;96846.72;5068288;28;19924;-86
2023/03/08 09:53:45;;;;;;;;;;;;;;;0.10;89.50;96846.53;5067303;28;20390;-85
2023/03/08 09:56:16;;;;;;;;;;;;;;;-0.03;90.79;96847.59;5084551;28;19923;-85
2023/03/08 09:58:44;;;;;;;;;;;;;;;-0.07;91.09;96835.19;5063463;28;20398;-85
2023/03/08 10:01:13;;;;;;;;;;;;;;;-0.21;90.71;96832.00;5061448;28;19923;-86
2023/03/08 10:03:38;;;;;;;;;;;;;;;0.14;91.87;96825.88;5067955;28;19939;-84
2023/03/08 10:06:03;;;;;;;;;;;;;;;-0.10;91.44;96818.06;5067466;28;19920;-84
2023/03/08 10:08:45;;;;;;;;;;;;;;;-0.39;92.63;96812.97;5072656;28;19921;-84
2023/03/08 10:11:37;;;;;;;;;;;;;;;0.25;92.40;96804.06;5065092;28;19946;-85
2023/03/08 10:14:12;;;;;;;;;;;;;;;-0.46;92.56;96797.38;5066685;28;19917;-85
2023/03/08 10:16:42;;;;;;;;;;;;;;;-0.81;93.73;96793.97;5068280;28;19923;-84
2023/03/08 10:19:11;;;;;;;;;;;;;;;-0.42;95.18;96787.25;5066751;28;20768;-85
2023/03/08 10:21:37;;;;;;;;;;;;;;;-0.45;93.93;96783.25;5066350;28;19917;-84
2023/03/08 10:24:05;;;;;;;;;;;;;;;-0.31;93.18;96781.19;5045541;28;19921;-84
2023/03/08 10:26:30;;;;;;;;;;;;;;;-0.90;94.13;96774.38;5063872;28;19927;-84
2023/03/08 10:28:56;;;;;;;;;;;;;;;-0.87;94.93;96777.31;5076597;28;19932;-84
2023/03/08 10:31:29;;;;;;;;;;;;;;;-0.37;93.54;96766.41;5046838;28;19932;-84
2023/03/08 10:34:01;;;;;;;;;;;;;;;-0.62;93.89;96771.06;5063459;28;20385;-84
2023/03/08 10:36:26;;;;;;;;;;;;;;;-0.44;93.19;96766.50;5079216;28;19920;-84
2023/03/08 10:39:06;;;;;;;;;;;;;;;-0.42;92.53;96755.78;5066837;28;20081;-85
2023/03/08 10:41:35;;;;;;;;;;;;;;;-0.68;93.33;96767.56;5062463;28;19935;-84
2023/03/08 10:44:01;;;;;;;;;;;;;;;-0.57;93.91;96753.66;5062073;28;19928;-85
2023/03/08 10:46:29;;;;;;;;;;;;;;;-0.27;93.78;96754.28;5075097;28;19925;-83
2023/03/08 10:49:04;;;;;;;;;;;;;;;-0.11;92.39;96756.16;5060168;28;19935;-84
2023/03/08 10:51:30;;;;;;;;;;;;;;;-0.27;92.72;96761.34;5076449;28;20450;-83
2023/03/08 10:53:59;;;;;;;;;;;;;;;-0.03;92.10;96752.41;5044952;28;19924;-83
2023/03/08 10:56:28;;;;;;;;;;;;;;;0.04;91.77;96741.78;5061940;28;19929;-83
2023/03/08 10:58:54;;;;;;;;;;;;;;;0.18;91.28;96748.31;5080758;28;20368;-84
2023/03/08 11:01:33;;;;;;;;;;;;;;;0.30;90.63;96756.97;5062450;28;20057;-83
2023/03/08 11:04:18;;;;;;;;;;;;;;;0.30;89.84;96755.13;5074725;28;19924;-83
2023/03/08 11:06:44;;;;;;;;;;;;;;;-0.07;91.79;96759.91;5064816;28;19920;-85
2023/03/08 11:09:20;;;;;;;;;;;;;;;0.53;90.09;96757.63;5062245;28;19950;-86
2023/03/08 11:11:45;;;;;;;;;;;;;;;0.92;88.29;96755.16;5058939;28;19925;-85
2023/03/08 11:14:11;;;;;;;;;;;;;;;1.10;87.18;96753.06;5059503;28;19935;-86
2023/03/08 11:16:51;;;;;;;;;;;;;;;0.84;88.15;96742.41;5063067;28;20038;-85
2023/03/08 11:19:28;;;;;;;;;;;;;;;0.66;88.50;96752.09;5061681;28;19960;-84
2023/03/08 11:22:06;;;;;;;;;;;;;;;-0.28;91.54;96751.88;5063868;28;19921;-85
2023/03/08 11:24:43;;;;;;;;;;;;;;;-0.28;92.54;96755.31;5066602;28;19924;-86
2023/03/08 11:27:14;;;;;;;;;;;;;;;-0.36;93.29;96757.50;5060979;28;20318;-86
2023/03/08 11:29:42;;;;;;;;;;;;;;;0.17;92.11;96746.75;5062603;28;19930;-87
2023/03/08 11:32:16;;;;;;;;;;;;;;;-0.42;93.92;96746.13;5061748;28;19920;-85
2023/03/08 11:34:53;;;;;;;;;;;;;;;-0.40;94.56;96744.06;5061373;28;19916;-86
2023/03/08 11:37:21;;;;;;;;;;;;;;;0.06;93.20;96751.00;5078260;28;19932;-87
2023/03/08 11:39:47;;;;;;;;;;;;;;;-0.31;92.93;96741.88;5069321;28;21131;-87
2023/03/08 11:42:12;;;;;;;;;;;;;;;-0.06;93.17;96745.78;5079780;28;19974;-87
2023/03/08 11:44:43;;;;;;;;;;;;;;;-0.27;93.33;96743.81;5061496;28;19917;-86
2023/03/08 11:47:14;;;;;;;;;;;;;;;-0.40;94.66;96733.59;5062866;28;20019;-86
2023/03/08 11:50:04;;;;;;;;;;;;;;;-0.01;94.18;96732.78;5063691;28;19932;-85
2023/03/08 11:52:48;;;;;;;;;;;;;;;-0.11;93.32;96727.34;5044671;28;19916;-86
2023/03/08 11:55:19;;;;;;;;;;;;;;;-0.35;93.96;96725.81;5061525;28;19955;-85
2023/03/08 11:57:46;;;;;;;;;;;;;;;-0.55;94.64;96720.16;5064623;28;19920;-84
2023/03/08 12:00:16;;;;;;;;;;;;;;;-0.42;95.62;96721.72;5065437;28;20011;-84
2023/03/08 12:02:45;;;;;;;;;;;;;;;-0.41;95.16;96718.88;5063203;28;19976;-85
2023/03/08 12:05:16;;;;;;;;;;;;;;;-0.24;94.44;96704.00;5059806;28;19921;-84
2023/03/08 12:07:58;;;;;;;;;;;;;;;-0.34;94.54;96705.63;5080773;28;19924;-84
2023/03/08 12:10:26;;;;;;;;;;;;;;;-0.53;95.65;96704.22;5064809;28;19931;-84
2023/03/08 12:12:54;;;;;;;;;;;;;;;-0.53;95.71;96691.91;5070157;28;19920;-84
2023/03/08 12:15:38;;;;;;;;;;;;;;;-0.69;96.78;96697.84;5074699;28;19986;-85
2023/03/08 12:18:19;;;;;;;;;;;;;;;-0.67;96.98;96695.81;5077891;28;19927;-85
2023/03/08 12:20:45;;;;;;;;;;;;;;;-0.71;97.54;96692.06;5073369;28;19916;-84
2023/03/08 12:23:19;;;;;;;;;;;;;;;-0.70;97.80;96691.03;5054393;28;19975;-84
2023/03/08 12:25:47;;;;;;;;;;;;;;;-0.50;97.43;96694.06;5074995;28;19917;-85
2023/03/08 12:28:23;;;;;;;;;;;;;;;-0.45;97.32;96688.94;5071653;28;20788;-84
2023/03/08 12:31:07;;;;;;;;;;;;;;;-0.18;96.47;96695.25;5069976;28;19917;-84
2023/03/08 12:33:32;;;;;;;;;;;;;;;-0.29;95.10;96690.84;5066446;28;19931;-84
2023/03/08 12:36:01;;;;;;;;;;;;;;;-0.26;95.35;96692.16;5076193;28;19916;-83
2023/03/08 12:38:31;;;;;;;;;;;;;;;-0.48;96.40;96689.38;5078282;28;19912;-84
2023/03/08 12:40:56;;;;;;;;;;;;;;;-0.46;95.94;96676.84;5078502;28;19916;-85
2023/03/08 12:43:21;;;;;;;;;;;;;;;-0.56;96.88;96673.22;5070385;28;19931;-84
2023/03/08 12:46:07;;;;;;;;;;;;;;;-0.30;96.95;96683.19;5061593;28;19916;-84
2023/03/08 12:48:46;;;;;;;;;;;;;;;0.06;96.35;96664.47;5061258;28;19928;-83
2023/03/08 12:51:11;;;;;;;;;;;;;;;0.00;95.57;96668.03;5054363;28;19924;-84
2023/03/08 12:53:40;;;;;;;;;;;;;;;-0.46;95.24;96676.06;5061717;28;19931;-83
2023/03/08 12:56:05;;;;;;;;;;;;;;;-0.59;96.80;96676.31;5070587;28;20023;-84